Main page
METAR-TAF:

METAR-TAF

Airports :

Augsburg Airport

Augsburg, Germany

latitude: 48-26N, longitude: 010-56E, elevation: 461 m

Current weather observation

The report was made 18 minutes ago, at 17:50 UTC
Wind 6 kt from the Southwest, varying between South and West/Southwest
Temperature 18°C
Humidity 68%
Pressure 1012 hPa
Visibility 10 km or more
no clouds below 1500 m and no cumulonimbus

METAR: EDMA 141750Z 22006KT 180V240 CAVOK 18/12 Q1012

Time: 20:08 (18:08 UTC)

Forecast

The report was made 1 hour and 8 minutes ago, at 17:00 UTC
Forecast valid from 14 at 18 UTC to 14 at 24 UTC
Wind 7 kt from the Southwest
Visibility 10 km or more
Scattered clouds at a height of 4500 ft
Becoming
from 14 at 18 UTC to 14 at 20 UTC
Wind 4 kt from the South/Southeast

TAF: EDMA 141700Z 1418/1424 22007KT 9999 SCT045 BECMG 1418/1420 16004KT

Weather observations and forecasts of more than 4000 airports (METAR and TAF reports).

The available stations are represented by yellow and red dots on the map.

Hover mouse over dot to see the name of the station.

Then click to see weather observations and forecasts.

To change the map : click on the green buttons with a black cross to zoom in, on the green button with a dash to zoom out, or on the green arrows for adjacent maps.


METAR-TAF: